Time;durP1;ratioP1;P1;durP2;ratioP2;P2;SDS_P1;SDS_P2;PMS_P1;PMS_P2;Temp;Humidity;BMP_temperature;BMP_pressure;BME280_temperature;BME280_humidity;BME280_pressure;Samples;Min_cycle;Max_cycle;Signal;HPM_P1;HPM_P2
2022/11/26 00:00:36;;;;;;;18.80;4.70;;;7.70;99.90;;;;;;4861463;29;20128;-64
2022/11/26 00:03:03;;;;;;;22.90;4.18;;;7.70;99.90;;;;;;4860505;29;20435;-63
2022/11/26 00:05:30;;;;;;;20.48;4.78;;;7.70;99.90;;;;;;4861291;29;20423;-63
2022/11/26 00:07:57;;;;;;;23.05;4.50;;;7.80;99.90;;;;;;4861053;29;20102;-64
2022/11/26 00:10:24;;;;;;;20.52;4.55;;;7.80;99.90;;;;;;4861414;29;20097;-63
2022/11/26 00:12:50;;;;;;;17.65;4.38;;;7.80;99.90;;;;;;4861463;29;20037;-64
2022/11/26 00:15:17;;;;;;;25.00;4.28;;;7.80;99.90;;;;;;4861346;29;20049;-64
2022/11/26 00:17:44;;;;;;;21.27;4.22;;;7.80;99.90;;;;;;4856215;29;20358;-63
2022/11/26 00:20:11;;;;;;;22.55;4.60;;;7.80;99.90;;;;;;4860890;29;20050;-63
2022/11/26 00:22:37;;;;;;;25.48;4.93;;;7.80;99.90;;;;;;4860349;29;20065;-63
2022/11/26 00:25:04;;;;;;;18.83;3.90;;;7.80;99.90;;;;;;4860500;29;20056;-62
2022/11/26 00:27:31;;;;;;;16.98;3.70;;;7.80;99.90;;;;;;4860057;29;20056;-63
2022/11/26 00:29:58;;;;;;;23.48;4.00;;;7.80;99.90;;;;;;4860101;29;20065;-64
2022/11/26 00:32:24;;;;;;;19.17;4.10;;;7.80;99.90;;;;;;4860952;29;20121;-63
2022/11/26 00:34:51;;;;;;;15.57;4.00;;;7.80;99.90;;;;;;4861143;29;20046;-64
2022/11/26 00:37:18;;;;;;;18.88;4.50;;;7.80;99.90;;;;;;4862645;29;20045;-63
2022/11/26 00:39:45;;;;;;;24.77;4.45;;;7.80;99.90;;;;;;4864846;29;20073;-63
2022/11/26 00:42:11;;;;;;;24.77;4.45;;;7.80;99.90;;;;;;4863385;29;20046;-63
2022/11/26 00:44:38;;;;;;;19.95;4.07;;;7.80;99.90;;;;;;4864680;29;20080;-64
2022/11/26 00:47:05;;;;;;;23.02;4.45;;;7.80;99.90;;;;;;4858249;29;20133;-64
2022/11/26 00:49:34;;;;;;;23.52;3.88;;;7.80;99.90;;;;;;4853086;29;20041;-62
2022/11/26 00:52:01;;;;;;;20.73;4.47;;;7.80;99.90;;;;;;4842961;29;20038;-61
2022/11/26 00:54:28;;;;;;;25.55;4.30;;;7.80;99.90;;;;;;4861693;29;20049;-62
2022/11/26 00:56:55;;;;;;;16.00;3.72;;;7.80;99.90;;;;;;4861163;29;20072;-62
2022/11/26 00:59:21;;;;;;;21.83;3.88;;;7.80;99.90;;;;;;4864464;29;20121;-62
2022/11/26 01:01:48;;;;;;;18.75;3.28;;;7.80;99.90;;;;;;4862505;29;20205;-62
2022/11/26 01:04:15;;;;;;;23.38;4.55;;;7.90;99.90;;;;;;4864302;29;20045;-62
2022/11/26 01:06:42;;;;;;;21.73;4.05;;;7.80;99.90;;;;;;4863707;29;20076;-62
2022/11/26 01:09:09;;;;;;;17.95;3.90;;;7.90;99.90;;;;;;4864125;29;20160;-63
2022/11/26 01:11:35;;;;;;;19.58;4.10;;;7.90;99.90;;;;;;4863995;29;20120;-63
2022/11/26 01:14:04;;;;;;;21.67;4.28;;;7.90;99.90;;;;;;4864094;29;20129;-62
2022/11/26 01:16:30;;;;;;;22.63;4.18;;;7.90;99.90;;;;;;4863960;29;20041;-63
2022/11/26 01:18:57;;;;;;;21.27;4.00;;;7.90;99.90;;;;;;4864158;29;20053;-63
2022/11/26 01:21:24;;;;;;;18.00;3.92;;;7.90;99.90;;;;;;4864087;29;20045;-63
2022/11/26 01:23:51;;;;;;;18.23;4.20;;;7.90;99.90;;;;;;4862780;29;20136;-64
2022/11/26 01:26:18;;;;;;;12.38;3.17;;;8.00;99.90;;;;;;4863196;29;20064;-63
2022/11/26 01:28:44;;;;;;;20.15;3.50;;;7.90;99.90;;;;;;4862399;29;20113;-63
2022/11/26 01:31:11;;;;;;;20.08;3.47;;;7.90;99.90;;;;;;4863589;29;20110;-64
2022/11/26 01:33:38;;;;;;;16.13;3.85;;;8.00;99.90;;;;;;4863740;29;20049;-64
2022/11/26 01:36:05;;;;;;;23.25;4.45;;;7.90;99.90;;;;;;4863419;29;20080;-63
2022/11/26 01:38:31;;;;;;;21.08;4.20;;;7.90;99.90;;;;;;4863899;29;20080;-63
2022/11/26 01:40:58;;;;;;;18.92;3.97;;;8.00;99.90;;;;;;4863559;29;20538;-63
2022/11/26 01:43:25;;;;;;;21.48;3.70;;;8.00;99.90;;;;;;4863709;29;20054;-64
2022/11/26 01:45:52;;;;;;;22.08;3.80;;;8.00;99.90;;;;;;4863263;29;20088;-64
2022/11/26 01:48:18;;;;;;;18.52;3.72;;;8.00;99.90;;;;;;4863372;29;20052;-63
2022/11/26 01:50:45;;;;;;;15.88;3.67;;;8.00;99.90;;;;;;4864407;29;20073;-63
2022/11/26 01:53:12;;;;;;;17.55;3.42;;;8.10;99.90;;;;;;4863477;29;20045;-63
2022/11/26 01:55:39;;;;;;;17.88;3.33;;;8.10;99.90;;;;;;4862140;29;20050;-63
2022/11/26 01:58:05;;;;;;;20.77;4.00;;;8.10;99.90;;;;;;4863384;29;20128;-63
2022/11/26 02:00:32;;;;;;;14.98;3.00;;;8.10;99.90;;;;;;4862904;29;20045;-63
2022/11/26 02:02:59;;;;;;;13.98;3.03;;;8.10;99.90;;;;;;4863189;29;20052;-63
2022/11/26 02:05:26;;;;;;;20.20;3.38;;;8.20;99.90;;;;;;4863230;29;20111;-63
2022/11/26 02:07:53;;;;;;;16.15;4.38;;;8.20;99.90;;;;;;4862953;29;20045;-63
2022/11/26 02:10:20;;;;;;;17.70;3.40;;;8.20;99.90;;;;;;4863335;29;20503;-64
2022/11/26 02:12:47;;;;;;;19.33;3.35;;;8.20;99.90;;;;;;4862928;29;20052;-63
2022/11/26 02:15:13;;;;;;;18.13;4.00;;;8.30;99.90;;;;;;4862682;29;20034;-63
2022/11/26 02:17:40;;;;;;;18.80;4.00;;;8.30;99.90;;;;;;4863085;29;20591;-63
2022/11/26 02:20:07;;;;;;;16.85;4.32;;;8.30;99.90;;;;;;4863119;29;20105;-64
2022/11/26 02:22:34;;;;;;;15.05;4.15;;;8.30;99.90;;;;;;4863158;29;20076;-63
2022/11/26 02:25:01;;;;;;;22.52;4.30;;;8.30;99.90;;;;;;4862353;29;20386;-63
2022/11/26 02:27:27;;;;;;;16.27;4.60;;;8.30;99.90;;;;;;4862917;29;20045;-63
2022/11/26 02:29:54;;;;;;;19.30;3.95;;;8.30;99.90;;;;;;4862438;29;20057;-64
2022/11/26 02:32:21;;;;;;;16.83;4.13;;;8.30;99.90;;;;;;4862399;29;20080;-64
2022/11/26 02:34:48;;;;;;;19.30;3.92;;;8.30;99.90;;;;;;4862778;29;20404;-64
2022/11/26 02:37:14;;;;;;;15.10;3.97;;;8.40;99.90;;;;;;4862307;29;20072;-63
2022/11/26 02:39:41;;;;;;;16.70;3.80;;;8.40;99.90;;;;;;4861156;29;20052;-63
2022/11/26 02:42:08;;;;;;;15.30;4.03;;;8.40;99.90;;;;;;4862677;29;20041;-63
2022/11/26 02:44:35;;;;;;;14.73;4.10;;;8.40;99.90;;;;;;4862700;29;20105;-63
2022/11/26 02:47:02;;;;;;;14.00;3.53;;;8.40;99.90;;;;;;4862664;29;20068;-63
2022/11/26 02:49:28;;;;;;;17.42;3.92;;;8.40;99.90;;;;;;4862507;29;20077;-62
2022/11/26 02:51:55;;;;;;;15.98;3.97;;;8.40;99.90;;;;;;4861908;29;20042;-63
2022/11/26 02:54:22;;;;;;;17.80;4.07;;;8.40;99.90;;;;;;4862291;29;20073;-62
2022/11/26 02:56:49;;;;;;;16.55;3.85;;;8.50;99.90;;;;;;4862362;29;20105;-62
2022/11/26 02:59:15;;;;;;;24.05;4.35;;;8.50;99.90;;;;;;4860949;29;20041;-64
2022/11/26 03:01:42;;;;;;;15.77;3.38;;;8.50;99.90;;;;;;4861807;29;20046;-62
2022/11/26 03:04:09;;;;;;;16.63;3.83;;;8.50;99.90;;;;;;4862003;29;20512;-63
2022/11/26 03:06:36;;;;;;;17.98;2.75;;;8.50;99.90;;;;;;4862058;29;20046;-64
2022/11/26 03:09:02;;;;;;;17.40;3.80;;;8.50;99.90;;;;;;4860648;29;20508;-63
2022/11/26 03:11:29;;;;;;;16.88;2.90;;;8.60;99.90;;;;;;4862248;29;20060;-62
2022/11/26 03:13:56;;;;;;;16.80;3.13;;;8.60;99.90;;;;;;4861719;29;20045;-64
2022/11/26 03:16:23;;;;;;;20.13;3.20;;;8.60;99.90;;;;;;4862140;29;20073;-63
2022/11/26 03:18:50;;;;;;;16.88;3.10;;;8.60;99.90;;;;;;4861676;29;20046;-63
2022/11/26 03:21:16;;;;;;;14.38;3.20;;;8.60;99.90;;;;;;4861830;29;20386;-62
2022/11/26 03:23:43;;;;;;;15.95;3.30;;;8.70;99.90;;;;;;4862204;29;20110;-63
2022/11/26 03:26:10;;;;;;;17.02;3.30;;;8.70;99.90;;;;;;4861357;29;20061;-63
2022/11/26 03:28:36;;;;;;;17.45;3.30;;;8.60;99.90;;;;;;4860364;29;20061;-63
2022/11/26 03:31:03;;;;;;;18.27;3.47;;;8.70;99.90;;;;;;4861515;29;20175;-63
2022/11/26 03:33:30;;;;;;;14.15;3.30;;;8.70;99.90;;;;;;4860230;29;20053;-63
2022/11/26 03:35:57;;;;;;;15.60;3.63;;;8.70;99.90;;;;;;4861421;29;20565;-63
2022/11/26 03:38:23;;;;;;;19.13;4.40;;;8.70;99.90;;;;;;4861972;29;20411;-64
2022/11/26 03:40:50;;;;;;;19.40;3.17;;;8.70;99.90;;;;;;4861685;29;20102;-65
2022/11/26 03:43:17;;;;;;;15.73;3.22;;;8.70;99.90;;;;;;4861382;29;20512;-63
2022/11/26 03:45:44;;;;;;;17.83;3.20;;;8.70;99.90;;;;;;4861255;29;20057;-64
2022/11/26 03:48:10;;;;;;;17.17;3.42;;;8.70;99.90;;;;;;4860165;29;20053;-63
2022/11/26 03:50:37;;;;;;;16.60;3.58;;;8.70;99.90;;;;;;4861458;29;20041;-63
2022/11/26 03:53:04;;;;;;;14.15;2.90;;;8.70;99.90;;;;;;4861780;29;20390;-63
2022/11/26 03:55:30;;;;;;;15.50;3.45;;;8.60;99.90;;;;;;4861405;29;20048;-62
2022/11/26 03:57:57;;;;;;;22.38;3.83;;;8.70;99.90;;;;;;4861451;29;20502;-63
2022/11/26 04:00:24;;;;;;;16.30;3.17;;;8.70;99.90;;;;;;4860191;29;20105;-63
2022/11/26 04:02:51;;;;;;;21.77;4.95;;;8.60;99.90;;;;;;4861331;29;20084;-63
2022/11/26 04:05:17;;;;;;;18.70;4.63;;;8.70;99.90;;;;;;4860111;29;20057;-64
2022/11/26 04:07:44;;;;;;;21.30;3.85;;;8.70;99.90;;;;;;4861243;29;20051;-64
2022/11/26 04:10:11;;;;;;;21.33;3.63;;;8.70;99.90;;;;;;4859714;29;20105;-63
2022/11/26 04:12:38;;;;;;;16.10;3.45;;;8.70;99.90;;;;;;4864410;29;20073;-63
2022/11/26 04:15:04;;;;;;;17.30;3.35;;;8.70;99.90;;;;;;4864949;29;20065;-62
2022/11/26 04:17:31;;;;;;;21.48;3.33;;;8.70;99.90;;;;;;4865179;29;20366;-63
2022/11/26 04:19:58;;;;;;;13.65;3.53;;;8.70;99.90;;;;;;4863904;29;20533;-64
2022/11/26 04:22:25;;;;;;;14.95;3.03;;;8.70;99.90;;;;;;4864903;29;20049;-63
2022/11/26 04:24:51;;;;;;;17.15;3.28;;;8.70;99.90;;;;;;4864664;29;20046;-62
2022/11/26 04:27:18;;;;;;;17.58;3.45;;;8.70;99.90;;;;;;4863713;29;20117;-63
2022/11/26 04:29:45;;;;;;;14.30;3.13;;;8.70;99.90;;;;;;4865058;29;20048;-63
2022/11/26 04:32:11;;;;;;;16.45;2.90;;;8.70;99.90;;;;;;4864717;29;20081;-63
2022/11/26 04:34:38;;;;;;;16.73;3.28;;;8.70;99.90;;;;;;4864581;29;20137;-63
2022/11/26 04:37:05;;;;;;;17.02;3.17;;;8.70;99.90;;;;;;4864580;29;20065;-63
2022/11/26 04:39:32;;;;;;;18.90;3.30;;;8.70;99.90;;;;;;4863513;29;20082;-63
2022/11/26 04:41:59;;;;;;;19.13;3.00;;;8.70;99.90;;;;;;4864655;29;20422;-63
2022/11/26 04:44:25;;;;;;;18.88;3.35;;;8.70;99.90;;;;;;4863233;29;20094;-63
2022/11/26 04:46:52;;;;;;;16.70;2.83;;;8.70;99.90;;;;;;4864582;29;20098;-62
2022/11/26 04:49:19;;;;;;;13.90;3.05;;;8.70;99.90;;;;;;4864454;29;20122;-63
2022/11/26 04:51:45;;;;;;;16.23;3.67;;;8.80;99.90;;;;;;4864322;29;20120;-64
2022/11/26 04:54:12;;;;;;;16.67;3.10;;;8.70;99.90;;;;;;4864057;29;20037;-65
2022/11/26 04:56:39;;;;;;;21.60;4.03;;;8.70;99.90;;;;;;4863993;29;20053;-64
2022/11/26 04:59:05;;;;;;;14.40;2.97;;;8.80;99.90;;;;;;4864442;29;20116;-63
2022/11/26 05:01:32;;;;;;;18.23;3.13;;;8.70;99.90;;;;;;4864028;29;20110;-63
2022/11/26 05:03:59;;;;;;;17.98;3.05;;;8.80;99.90;;;;;;4864347;29;20120;-63
2022/11/26 05:06:26;;;;;;;14.90;3.10;;;8.70;99.90;;;;;;4864000;29;20084;-63
2022/11/26 05:08:53;;;;;;;18.52;2.90;;;8.80;99.90;;;;;;4862748;29;20098;-64
2022/11/26 05:11:19;;;;;;;16.60;3.45;;;8.80;99.90;;;;;;4864332;29;20101;-63
2022/11/26 05:13:46;;;;;;;16.65;3.13;;;8.80;99.90;;;;;;4863989;29;20383;-63
2022/11/26 05:16:13;;;;;;;16.58;3.47;;;8.80;99.90;;;;;;4864062;29;20041;-63
2022/11/26 05:18:40;;;;;;;18.40;4.38;;;8.80;99.90;;;;;;4864187;29;20050;-63
2022/11/26 05:21:06;;;;;;;20.35;2.88;;;8.80;99.90;;;;;;4864164;29;20041;-64
2022/11/26 05:23:33;;;;;;;19.67;4.63;;;8.80;99.90;;;;;;4862155;29;20050;-62
2022/11/26 05:26:00;;;;;;;14.65;3.30;;;8.80;99.90;;;;;;4862468;29;20092;-63
2022/11/26 05:28:26;;;;;;;19.88;3.30;;;8.80;99.90;;;;;;4862722;29;20102;-63
2022/11/26 05:30:53;;;;;;;23.48;3.60;;;8.80;99.90;;;;;;4862291;29;20132;-63
2022/11/26 05:33:20;;;;;;;15.00;2.88;;;8.80;99.90;;;;;;4862977;29;20045;-63
2022/11/26 05:35:46;;;;;;;13.77;2.72;;;8.90;99.90;;;;;;4862775;29;20045;-64
2022/11/26 05:38:13;;;;;;;13.57;2.63;;;8.90;99.90;;;;;;4862410;29;20116;-64
2022/11/26 05:40:40;;;;;;;19.42;3.05;;;8.90;99.90;;;;;;4861374;29;20110;-63
2022/11/26 05:43:06;;;;;;;22.30;3.20;;;8.90;99.90;;;;;;4862303;29;20047;-63
2022/11/26 05:45:33;;;;;;;22.15;3.25;;;8.90;99.90;;;;;;4862734;29;20061;-63
2022/11/26 05:48:00;;;;;;;13.30;3.38;;;8.90;99.90;;;;;;4861592;29;20060;-63
2022/11/26 05:50:27;;;;;;;14.50;3.03;;;8.80;99.90;;;;;;4862297;29;20049;-63
2022/11/26 05:52:53;;;;;;;17.77;4.03;;;8.80;99.90;;;;;;4861030;29;20054;-63
2022/11/26 05:55:20;;;;;;;15.80;2.92;;;8.80;99.90;;;;;;4862388;29;20500;-63
2022/11/26 05:57:47;;;;;;;20.35;3.88;;;8.80;99.90;;;;;;4862398;29;20110;-63
2022/11/26 06:00:13;;;;;;;20.20;3.60;;;8.90;99.90;;;;;;4862300;29;20052;-63
2022/11/26 06:02:40;;;;;;;16.98;3.17;;;8.80;99.90;;;;;;4862683;29;20576;-63
2022/11/26 06:05:07;;;;;;;17.65;3.35;;;8.80;99.90;;;;;;4862081;29;20053;-63
2022/11/26 06:07:34;;;;;;;15.98;3.55;;;8.80;99.90;;;;;;4862244;29;20478;-63
2022/11/26 06:10:04;;;;;;;17.48;3.00;;;8.80;99.90;;;;;;4862324;29;20124;-64
2022/11/26 06:12:31;;;;;;;10.77;3.10;;;8.80;99.90;;;;;;4862311;29;20038;-62
2022/11/26 06:14:58;;;;;;;17.92;3.05;;;8.80;99.90;;;;;;4861038;29;20072;-62
2022/11/26 06:17:25;;;;;;;13.23;3.08;;;8.80;99.90;;;;;;4861134;29;20450;-63
2022/11/26 06:19:51;;;;;;;19.88;3.60;;;8.80;99.90;;;;;;4861780;29;20045;-63
2022/11/26 06:22:18;;;;;;;15.80;2.88;;;8.80;99.90;;;;;;4862094;29;20081;-64
2022/11/26 06:24:45;;;;;;;17.40;3.13;;;8.80;99.90;;;;;;4820388;29;1234337;-64
2022/11/26 06:27:11;;;;;;;18.35;3.47;;;8.80;99.90;;;;;;4862890;29;20386;-62
2022/11/26 06:29:38;;;;;;;21.05;3.70;;;8.80;99.90;;;;;;4863015;29;20049;-63
2022/11/26 06:32:05;;;;;;;18.35;3.00;;;8.70;99.90;;;;;;4861756;29;20045;-63
2022/11/26 06:34:32;;;;;;;19.08;3.28;;;8.70;99.90;;;;;;4861956;29;20041;-62
2022/11/26 06:36:58;;;;;;;14.88;3.03;;;8.70;99.90;;;;;;4861542;29;20489;-63
2022/11/26 06:39:25;;;;;;;17.85;3.35;;;8.70;99.90;;;;;;4862750;29;20128;-62
2022/11/26 06:41:52;;;;;;;17.40;3.03;;;8.70;99.90;;;;;;4862716;29;20124;-64
2022/11/26 06:44:19;;;;;;;15.55;2.70;;;8.60;99.90;;;;;;4862471;29;20053;-64
2022/11/26 06:46:45;;;;;;;14.65;2.60;;;8.60;99.90;;;;;;4862162;29;20053;-63
2022/11/26 06:49:12;;;;;;;16.08;2.80;;;8.60;99.90;;;;;;4862061;29;20042;-63
2022/11/26 06:51:39;;;;;;;24.52;4.45;;;8.60;99.90;;;;;;4862107;29;20097;-64
2022/11/26 06:54:06;;;;;;;21.92;3.70;;;8.60;99.90;;;;;;4862108;29;20097;-63
2022/11/26 06:56:34;;;;;;;23.63;4.07;;;8.60;99.90;;;;;;4862028;29;20041;-63
2022/11/26 06:59:01;;;;;;;23.80;3.25;;;8.60;99.90;;;;;;4861950;29;20129;-63
2022/11/26 07:01:28;;;;;;;18.83;3.10;;;8.60;99.90;;;;;;4862210;29;20045;-64
2022/11/26 07:03:55;;;;;;;15.25;2.95;;;8.60;99.90;;;;;;4861844;29;20072;-64
2022/11/26 07:06:21;;;;;;;17.15;3.50;;;8.60;99.90;;;;;;4862067;29;20105;-62
2022/11/26 07:08:48;;;;;;;24.35;3.75;;;8.60;99.90;;;;;;4861206;29;20079;-62
2022/11/26 07:11:15;;;;;;;21.65;3.47;;;8.60;99.90;;;;;;4862257;29;20053;-61
2022/11/26 07:13:42;;;;;;;17.65;3.72;;;8.50;99.90;;;;;;4861631;29;20045;-63
2022/11/26 07:16:08;;;;;;;19.55;4.05;;;8.50;99.90;;;;;;4860816;29;20050;-63
2022/11/26 07:18:35;;;;;;;19.25;3.53;;;8.50;99.90;;;;;;4861724;29;20482;-63
2022/11/26 07:21:02;;;;;;;18.30;3.58;;;8.50;99.90;;;;;;4862258;29;20077;-63
2022/11/26 07:23:29;;;;;;;13.55;3.42;;;8.40;99.90;;;;;;4861907;29;20485;-63
2022/11/26 07:25:55;;;;;;;18.55;3.20;;;8.40;99.90;;;;;;4860527;29;20057;-63
2022/11/26 07:28:22;;;;;;;19.85;3.35;;;8.40;99.90;;;;;;4861619;29;20382;-63
2022/11/26 07:30:49;;;;;;;21.02;3.92;;;8.40;99.90;;;;;;4861966;29;20054;-63
2022/11/26 07:33:15;;;;;;;24.58;3.85;;;8.40;99.90;;;;;;4860332;29;20049;-64
2022/11/26 07:35:42;;;;;;;21.80;3.67;;;8.40;99.90;;;;;;4861928;29;20101;-64
2022/11/26 07:38:09;;;;;;;17.33;3.17;;;8.30;99.90;;;;;;4861697;29;20097;-64
2022/11/26 07:40:36;;;;;;;27.05;3.50;;;8.30;99.90;;;;;;4861733;29;20046;-63
2022/11/26 07:43:02;;;;;;;16.13;3.42;;;8.30;99.90;;;;;;4861857;29;20058;-63
2022/11/26 07:45:29;;;;;;;21.30;3.35;;;8.30;99.90;;;;;;4859994;29;20147;-64
2022/11/26 07:47:56;;;;;;;15.13;3.17;;;8.20;99.90;;;;;;4860167;29;20124;-64
2022/11/26 07:50:22;;;;;;;21.27;3.50;;;8.20;99.90;;;;;;4861628;29;20053;-63
2022/11/26 07:52:49;;;;;;;17.17;3.17;;;8.20;99.90;;;;;;4861178;29;20125;-63
2022/11/26 07:55:16;;;;;;;17.13;3.45;;;8.20;99.90;;;;;;4861609;29;20073;-63
2022/11/26 07:57:43;;;;;;;23.05;3.67;;;8.20;99.90;;;;;;4861711;29;20069;-64
2022/11/26 08:00:09;;;;;;;17.52;3.10;;;8.20;99.90;;;;;;4861526;29;20042;-63
2022/11/26 08:02:39;;;;;;;21.17;3.42;;;8.20;99.90;;;;;;4860397;29;20569;-63
2022/11/26 08:05:06;;;;;;;25.08;3.70;;;8.20;99.90;;;;;;4861070;29;20049;-64
2022/11/26 08:07:32;;;;;;;16.13;4.22;;;8.20;99.90;;;;;;4861423;29;20041;-63
2022/11/26 08:09:59;;;;;;;22.30;4.10;;;8.20;99.90;;;;;;4861172;29;20049;-63
2022/11/26 08:12:26;;;;;;;20.52;3.33;;;8.20;99.90;;;;;;4859762;29;20400;-63
2022/11/26 08:14:53;;;;;;;37.10;19.88;;;8.20;99.90;;;;;;4861301;29;20056;-64
2022/11/26 08:17:19;;;;;;;22.60;5.05;;;8.20;99.90;;;;;;4860989;29;20073;-64
2022/11/26 08:19:46;;;;;;;18.92;5.22;;;8.30;99.90;;;;;;4861546;29;20516;-64
2022/11/26 08:22:13;;;;;;;20.23;3.45;;;8.30;99.90;;;;;;4861477;29;20053;-63
2022/11/26 08:24:39;;;;;;;23.38;4.53;;;8.30;99.90;;;;;;4860730;29;20450;-63
2022/11/26 08:27:06;;;;;;;19.77;3.67;;;8.40;99.90;;;;;;4861094;29;20057;-63
2022/11/26 08:29:33;;;;;;;18.25;3.60;;;8.40;99.90;;;;;;4861224;29;20050;-63
2022/11/26 08:32:00;;;;;;;25.58;3.95;;;8.50;99.90;;;;;;4861083;29;20045;-63
2022/11/26 08:34:27;;;;;;;126.85;13.05;;;8.50;99.90;;;;;;4861141;29;20117;-63
2022/11/26 08:36:53;;;;;;;39.65;5.93;;;8.70;99.90;;;;;;4859992;29;20106;-63
2022/11/26 08:39:20;;;;;;;26.08;4.35;;;8.80;99.90;;;;;;4857677;29;20050;-64
2022/11/26 08:41:47;;;;;;;49.92;7.72;;;8.80;99.90;;;;;;4853443;29;20069;-63
2022/11/26 08:44:18;;;;;;;26.15;4.07;;;8.90;99.90;;;;;;4848748;29;20045;-64
2022/11/26 08:46:44;;;;;;;25.98;4.35;;;9.00;99.90;;;;;;4839039;29;20129;-62
2022/11/26 08:49:11;;;;;;;21.35;3.08;;;9.10;99.90;;;;;;4842270;29;20046;-63
2022/11/26 08:51:38;;;;;;;23.17;4.47;;;9.10;99.90;;;;;;4849753;29;20050;-64
2022/11/26 08:54:04;;;;;;;16.65;3.22;;;9.20;99.90;;;;;;4852726;29;20098;-64
2022/11/26 08:56:31;;;;;;;20.17;3.95;;;9.20;99.90;;;;;;4859600;29;20122;-63
2022/11/26 08:58:58;;;;;;;33.03;5.88;;;9.20;99.90;;;;;;4854969;29;20095;-63
2022/11/26 09:01:25;;;;;;;26.02;4.30;;;9.20;99.90;;;;;;4861465;29;20045;-63
2022/11/26 09:03:52;;;;;;;16.20;4.30;;;9.30;99.90;;;;;;4862984;29;20101;-63
2022/11/26 09:06:18;;;;;;;23.75;4.15;;;9.30;99.90;;;;;;4852131;29;20057;-63
2022/11/26 09:11:30;;;;;;;26.50;5.10;;;9.30;99.90;;;;;;4857043;29;20052;-64
2022/11/26 09:13:57;;;;;;;23.75;4.85;;;9.30;99.90;;;;;;4863568;29;20118;-63
2022/11/26 09:16:24;;;;;;;24.90;5.30;;;9.30;99.90;;;;;;4862785;29;20049;-63
2022/11/26 09:18:51;;;;;;;22.23;4.60;;;9.40;99.90;;;;;;4851418;29;20056;-63
2022/11/26 09:21:17;;;;;;;22.50;3.85;;;9.40;99.90;;;;;;4854520;29;20439;-63
2022/11/26 09:23:44;;;;;;;51.47;7.68;;;9.50;99.90;;;;;;4861005;29;20042;-63
2022/11/26 09:26:11;;;;;;;20.40;4.85;;;9.50;99.90;;;;;;4861517;29;20117;-63
2022/11/26 09:28:38;;;;;;;26.20;6.10;;;9.60;99.90;;;;;;4861719;29;20053;-63
2022/11/26 09:31:05;;;;;;;23.73;4.70;;;9.60;99.90;;;;;;4861750;29;20050;-63
2022/11/26 09:33:31;;;;;;;18.98;4.22;;;9.70;99.90;;;;;;4844896;29;20470;-64
2022/11/26 09:35:58;;;;;;;19.42;3.95;;;9.70;99.90;;;;;;4844952;29;20074;-62
2022/11/26 09:38:25;;;;;;;17.33;4.97;;;9.80;99.90;;;;;;4849369;29;20438;-61
2022/11/26 09:40:52;;;;;;;31.73;6.75;;;9.90;99.90;;;;;;4862004;29;20049;-63
2022/11/26 09:43:18;;;;;;;25.45;5.32;;;9.90;99.90;;;;;;4861960;29;20049;-64
2022/11/26 09:45:45;;;;;;;27.38;5.10;;;10.00;99.90;;;;;;4860805;29;20529;-62
2022/11/26 09:48:12;;;;;;;27.65;5.40;;;10.00;99.90;;;;;;4862162;29;20652;-63
2022/11/26 09:50:39;;;;;;;19.33;5.28;;;10.00;99.90;;;;;;4858840;29;20509;-63
2022/11/26 09:53:06;;;;;;;24.63;6.55;;;10.10;99.90;;;;;;4854674;29;20049;-62
2022/11/26 09:55:33;;;;;;;29.92;8.55;;;10.10;99.90;;;;;;4846378;29;20070;-64
2022/11/26 09:58:00;;;;;;;28.98;8.25;;;10.10;99.90;;;;;;4862220;29;20042;-62
2022/11/26 10:00:26;;;;;;;30.63;10.30;;;10.20;99.90;;;;;;4852689;29;20170;-62
2022/11/26 10:02:53;;;;;;;31.00;7.40;;;10.20;99.90;;;;;;4844124;29;20048;-63
2022/11/26 10:05:20;;;;;;;25.10;4.82;;;10.20;99.90;;;;;;4843915;29;20050;-63
2022/11/26 10:07:47;;;;;;;29.60;5.28;;;10.30;99.90;;;;;;4852090;29;20080;-62
2022/11/26 10:10:14;;;;;;;29.00;5.65;;;10.30;99.90;;;;;;4859166;29;20489;-61
2022/11/26 10:12:40;;;;;;;15.77;3.75;;;10.40;99.90;;;;;;4855418;29;20057;-63
2022/11/26 10:15:27;;;;;;;20.58;5.38;;;10.40;99.90;;;;;;4861844;29;20517;-63
2022/11/26 10:17:54;;;;;;;30.60;6.57;;;10.40;99.90;;;;;;4860772;29;20049;-63
2022/11/26 10:20:21;;;;;;;20.70;4.97;;;10.50;99.90;;;;;;4861643;29;20053;-63
2022/11/26 10:22:47;;;;;;;41.22;6.85;;;10.50;99.90;;;;;;4848285;29;20050;-62
2022/11/26 10:25:22;;;;;;;44.93;7.33;;;10.50;99.90;;;;;;4854948;29;20482;-63
2022/11/26 10:27:49;;;;;;;26.92;4.22;;;10.60;99.90;;;;;;4860519;29;20283;-63
2022/11/26 10:30:15;;;;;;;68.70;8.68;;;10.60;99.90;;;;;;4861552;29;20367;-65
2022/11/26 10:32:42;;;;;;;44.03;6.97;;;10.70;99.90;;;;;;4850411;29;20050;-64
2022/11/26 10:35:09;;;;;;;20.75;4.03;;;10.80;99.90;;;;;;4854623;29;20098;-63
2022/11/26 10:37:35;;;;;;;32.13;4.72;;;10.80;99.90;;;;;;4844512;29;20041;-63
2022/11/26 10:40:02;;;;;;;71.75;9.50;;;10.90;99.90;;;;;;4858962;29;20426;-63
2022/11/26 10:42:33;;;;;;;48.92;6.75;;;10.90;99.90;;;;;;4861323;29;20053;-63
2022/11/26 10:44:59;;;;;;;205.35;19.70;;;10.90;99.90;;;;;;4861131;29;20045;-64
2022/11/26 10:47:26;;;;;;;123.15;13.88;;;11.00;99.90;;;;;;4860650;29;20056;-64
2022/11/26 10:49:53;;;;;;;19.08;4.75;;;11.00;99.90;;;;;;4861360;29;20049;-63
2022/11/26 10:52:20;;;;;;;22.73;6.50;;;11.10;99.90;;;;;;4848542;29;20052;-63
2022/11/26 10:54:46;;;;;;;32.78;5.78;;;11.00;99.90;;;;;;4843793;29;20378;-63
2022/11/26 10:57:13;;;;;;;27.65;6.80;;;11.10;99.90;;;;;;4855607;29;20117;-63
2022/11/26 10:59:40;;;;;;;25.20;5.90;;;11.10;99.90;;;;;;4860747;29;20045;-63
2022/11/26 11:02:07;;;;;;;24.55;5.50;;;11.20;99.90;;;;;;4861453;29;20081;-63
2022/11/26 11:04:34;;;;;;;22.65;4.75;;;11.20;99.90;;;;;;4856160;29;20126;-63
2022/11/26 11:07:01;;;;;;;192.57;19.88;;;11.20;99.90;;;;;;4843060;29;20421;-63
2022/11/26 11:09:31;;;;;;;74.38;9.05;;;11.30;99.90;;;;;;4854111;29;20073;-63
2022/11/26 11:11:58;;;;;;;33.30;5.47;;;11.40;99.90;;;;;;4858606;29;20466;-62
2022/11/26 11:14:25;;;;;;;24.77;4.43;;;11.40;99.90;;;;;;4854622;29;20049;-62
2022/11/26 11:16:52;;;;;;;62.60;6.63;;;11.40;99.90;;;;;;4849095;29;20049;-62
2022/11/26 11:19:18;;;;;;;39.78;4.80;;;11.40;99.90;;;;;;4860226;29;20041;-63
2022/11/26 11:21:45;;;;;;;42.50;5.15;;;11.50;99.90;;;;;;4850839;29;20056;-63
2022/11/26 11:24:14;;;;;;;27.08;4.32;;;11.50;99.90;;;;;;4842586;29;20435;-63
2022/11/26 11:26:41;;;;;;;55.10;5.95;;;11.50;99.90;;;;;;4841886;29;20050;-64
2022/11/26 11:29:07;;;;;;;65.45;7.65;;;11.50;99.90;;;;;;4851190;29;20046;-63
2022/11/26 11:31:34;;;;;;;53.53;5.70;;;11.60;99.90;;;;;;4859454;29;20065;-62
2022/11/26 11:34:02;;;;;;;26.08;3.97;;;11.60;99.90;;;;;;4859321;29;20042;-63
2022/11/26 11:36:28;;;;;;;29.75;4.55;;;11.60;99.90;;;;;;4859478;29;20045;-64
2022/11/26 11:38:55;;;;;;;53.90;9.43;;;11.60;99.90;;;;;;4859664;29;20114;-62
2022/11/26 11:41:22;;;;;;;18.08;3.90;;;11.60;99.90;;;;;;4859344;29;20073;-61
2022/11/26 11:43:48;;;;;;;20.73;3.40;;;11.70;99.90;;;;;;4845421;29;20132;-63
2022/11/26 11:46:15;;;;;;;13.20;3.60;;;11.60;99.90;;;;;;4842060;29;20053;-64
2022/11/26 11:48:42;;;;;;;24.77;4.97;;;11.60;99.90;;;;;;4842125;29;20125;-63
2022/11/26 11:51:09;;;;;;;15.48;3.50;;;11.70;99.90;;;;;;4842920;29;20053;-63
2022/11/26 11:53:35;;;;;;;24.00;3.72;;;11.70;99.90;;;;;;4842791;29;20046;-63
2022/11/26 11:56:02;;;;;;;40.80;5.20;;;11.70;99.90;;;;;;4842804;29;20106;-63
2022/11/26 11:58:29;;;;;;;21.02;3.90;;;11.70;99.90;;;;;;4842931;29;20050;-63
2022/11/26 12:00:56;;;;;;;53.53;6.97;;;11.80;99.90;;;;;;4853738;29;20092;-62
2022/11/26 12:03:23;;;;;;;22.27;3.60;;;11.80;99.90;;;;;;4854218;29;20055;-64
2022/11/26 12:05:50;;;;;;;18.15;3.45;;;11.70;99.90;;;;;;4842690;29;20053;-62
2022/11/26 12:08:16;;;;;;;27.40;6.45;;;11.80;99.90;;;;;;4854094;29;20050;-65
2022/11/26 12:10:43;;;;;;;137.80;13.57;;;11.80;99.90;;;;;;4842801;29;20046;-64
2022/11/26 12:13:10;;;;;;;23.38;3.80;;;11.80;99.90;;;;;;4856051;29;20049;-64
2022/11/26 12:15:36;;;;;;;19.20;3.33;;;11.80;99.90;;;;;;4860426;29;20093;-65
2022/11/26 12:18:03;;;;;;;16.52;2.97;;;11.80;99.90;;;;;;4860514;29;20058;-64
2022/11/26 12:20:30;;;;;;;18.13;3.05;;;11.80;99.90;;;;;;4859521;29;20577;-63
2022/11/26 12:22:57;;;;;;;15.60;3.25;;;11.90;99.90;;;;;;4860375;29;20054;-65
2022/11/26 12:25:24;;;;;;;20.33;4.15;;;11.80;99.90;;;;;;4860338;29;20121;-64
2022/11/26 12:27:51;;;;;;;23.75;4.05;;;11.80;99.90;;;;;;4860499;29;20102;-65
2022/11/26 12:30:18;;;;;;;17.75;3.08;;;11.90;99.90;;;;;;4854724;29;20054;-63
2022/11/26 12:32:45;;;;;;;13.70;2.90;;;11.90;99.90;;;;;;4850122;29;20463;-63
2022/11/26 12:35:11;;;;;;;23.45;4.40;;;11.90;99.90;;;;;;4863998;29;20049;-63
2022/11/26 12:37:38;;;;;;;16.88;3.75;;;11.90;99.90;;;;;;4863888;29;20128;-64
2022/11/26 12:40:05;;;;;;;16.88;4.32;;;11.90;99.90;;;;;;4863178;29;20037;-63
2022/11/26 12:42:32;;;;;;;13.57;3.17;;;11.90;99.90;;;;;;4862870;29;20057;-63